sensor_id;sensor_type;location;lat;lon;timestamp;P1;durP1;ratioP1;P2;durP2;ratioP2
59294;SDS011;45067;44.654;20.200;2023-04-03T00:02:01;10.43;;;5.57;;
59294;SDS011;45067;44.654;20.200;2023-04-03T00:04:27;14.18;;;7.30;;
59294;SDS011;45067;44.654;20.200;2023-04-03T00:06:53;11.77;;;5.72;;
59294;SDS011;45067;44.654;20.200;2023-04-03T00:09:19;10.80;;;5.35;;
59294;SDS011;45067;44.654;20.200;2023-04-03T00:11:45;8.90;;;4.90;;
59294;SDS011;45067;44.654;20.200;2023-04-03T00:17:15;9.27;;;5.50;;
59294;SDS011;45067;44.654;20.200;2023-04-03T00:19:41;8.60;;;5.60;;
59294;SDS011;45067;44.654;20.200;2023-04-03T00:22:07;7.10;;;4.75;;
59294;SDS011;45067;44.654;20.200;2023-04-03T00:24:33;7.57;;;5.43;;
59294;SDS011;45067;44.654;20.200;2023-04-03T00:26:59;7.72;;;5.30;;
59294;SDS011;45067;44.654;20.200;2023-04-03T00:29:25;8.00;;;5.35;;
59294;SDS011;45067;44.654;20.200;2023-04-03T00:31:51;7.45;;;5.28;;
59294;SDS011;45067;44.654;20.200;2023-04-03T00:34:17;8.57;;;5.57;;
59294;SDS011;45067;44.654;20.200;2023-04-03T00:36:43;9.85;;;5.88;;
59294;SDS011;45067;44.654;20.200;2023-04-03T00:39:09;9.20;;;5.32;;
59294;SDS011;45067;44.654;20.200;2023-04-03T00:41:35;7.82;;;5.55;;
59294;SDS011;45067;44.654;20.200;2023-04-03T00:47:06;7.68;;;5.40;;
59294;SDS011;45067;44.654;20.200;2023-04-03T00:49:32;8.13;;;6.00;;
59294;SDS011;45067;44.654;20.200;2023-04-03T00:51:58;8.65;;;6.00;;
59294;SDS011;45067;44.654;20.200;2023-04-03T00:54:25;7.50;;;5.22;;
59294;SDS011;45067;44.654;20.200;2023-04-03T00:56:51;9.65;;;5.68;;
59294;SDS011;45067;44.654;20.200;2023-04-03T01:02:21;9.00;;;5.60;;
59294;SDS011;45067;44.654;20.200;2023-04-03T01:04:47;8.07;;;5.10;;
59294;SDS011;45067;44.654;20.200;2023-04-03T01:07:18;7.07;;;5.15;;
59294;SDS011;45067;44.654;20.200;2023-04-03T01:09:47;7.97;;;5.20;;
59294;SDS011;45067;44.654;20.200;2023-04-03T01:14:41;8.43;;;5.00;;
59294;SDS011;45067;44.654;20.200;2023-04-03T01:20:02;6.93;;;4.82;;
59294;SDS011;45067;44.654;20.200;2023-04-03T01:22:35;7.32;;;4.95;;
59294;SDS011;45067;44.654;20.200;2023-04-03T01:25:12;8.10;;;5.43;;
59294;SDS011;45067;44.654;20.200;2023-04-03T01:27:38;7.55;;;5.32;;
59294;SDS011;45067;44.654;20.200;2023-04-03T01:30:04;8.73;;;5.40;;
59294;SDS011;45067;44.654;20.200;2023-04-03T01:32:31;8.07;;;6.15;;
59294;SDS011;45067;44.654;20.200;2023-04-03T01:34:57;12.90;;;6.78;;
59294;SDS011;45067;44.654;20.200;2023-04-03T01:37:23;12.23;;;7.47;;
59294;SDS011;45067;44.654;20.200;2023-04-03T01:39:49;10.43;;;7.30;;
59294;SDS011;45067;44.654;20.200;2023-04-03T01:42:15;8.82;;;6.40;;
59294;SDS011;45067;44.654;20.200;2023-04-03T01:44:42;12.23;;;7.65;;
59294;SDS011;45067;44.654;20.200;2023-04-03T01:47:08;15.90;;;7.75;;
59294;SDS011;45067;44.654;20.200;2023-04-03T01:49:34;12.30;;;7.53;;
59294;SDS011;45067;44.654;20.200;2023-04-03T01:52:00;10.40;;;7.68;;
59294;SDS011;45067;44.654;20.200;2023-04-03T01:54:26;11.68;;;8.52;;
59294;SDS011;45067;44.654;20.200;2023-04-03T01:56:52;18.73;;;7.57;;
59294;SDS011;45067;44.654;20.200;2023-04-03T02:02:21;11.43;;;7.60;;
59294;SDS011;45067;44.654;20.200;2023-04-03T02:04:47;10.18;;;8.00;;
59294;SDS011;45067;44.654;20.200;2023-04-03T02:07:13;13.75;;;8.75;;
59294;SDS011;45067;44.654;20.200;2023-04-03T02:09:40;12.50;;;7.45;;
59294;SDS011;45067;44.654;20.200;2023-04-03T02:12:06;10.65;;;8.15;;
59294;SDS011;45067;44.654;20.200;2023-04-03T02:17:35;11.43;;;8.57;;
59294;SDS011;45067;44.654;20.200;2023-04-03T02:20:02;10.95;;;8.30;;
59294;SDS011;45067;44.654;20.200;2023-04-03T02:22:28;10.00;;;7.30;;
59294;SDS011;45067;44.654;20.200;2023-04-03T02:24:54;10.57;;;8.10;;
59294;SDS011;45067;44.654;20.200;2023-04-03T02:27:20;11.60;;;9.07;;
59294;SDS011;45067;44.654;20.200;2023-04-03T02:29:46;17.52;;;8.82;;
59294;SDS011;45067;44.654;20.200;2023-04-03T02:32:12;12.30;;;8.15;;
59294;SDS011;45067;44.654;20.200;2023-04-03T02:34:38;9.82;;;8.25;;
59294;SDS011;45067;44.654;20.200;2023-04-03T02:37:04;11.02;;;8.00;;
59294;SDS011;45067;44.654;20.200;2023-04-03T02:39:31;12.00;;;8.70;;
59294;SDS011;45067;44.654;20.200;2023-04-03T02:41:57;10.85;;;8.15;;
59294;SDS011;45067;44.654;20.200;2023-04-03T02:47:27;10.25;;;8.63;;
59294;SDS011;45067;44.654;20.200;2023-04-03T02:49:53;13.73;;;9.88;;
59294;SDS011;45067;44.654;20.200;2023-04-03T02:52:19;15.95;;;9.82;;
59294;SDS011;45067;44.654;20.200;2023-04-03T02:54:46;12.70;;;10.02;;
59294;SDS011;45067;44.654;20.200;2023-04-03T02:57:12;14.07;;;10.40;;
59294;SDS011;45067;44.654;20.200;2023-04-03T03:02:41;16.33;;;10.35;;
59294;SDS011;45067;44.654;20.200;2023-04-03T03:05:07;10.85;;;8.45;;
59294;SDS011;45067;44.654;20.200;2023-04-03T03:07:33;15.10;;;10.68;;
59294;SDS011;45067;44.654;20.200;2023-04-03T03:09:59;14.38;;;10.15;;
59294;SDS011;45067;44.654;20.200;2023-04-03T03:12:25;15.43;;;10.43;;
59294;SDS011;45067;44.654;20.200;2023-04-03T03:14:51;15.77;;;10.52;;
59294;SDS011;45067;44.654;20.200;2023-04-03T03:17:18;14.65;;;9.57;;
59294;SDS011;45067;44.654;20.200;2023-04-03T03:19:44;13.35;;;9.68;;
59294;SDS011;45067;44.654;20.200;2023-04-03T03:22:10;15.25;;;10.25;;
59294;SDS011;45067;44.654;20.200;2023-04-03T03:24:36;13.43;;;9.80;;
59294;SDS011;45067;44.654;20.200;2023-04-03T03:27:03;14.25;;;10.00;;
59294;SDS011;45067;44.654;20.200;2023-04-03T03:32:33;13.75;;;9.40;;
59294;SDS011;45067;44.654;20.200;2023-04-03T03:34:59;13.27;;;9.50;;
59294;SDS011;45067;44.654;20.200;2023-04-03T03:37:25;13.93;;;9.27;;
59294;SDS011;45067;44.654;20.200;2023-04-03T03:39:52;12.65;;;9.30;;
59294;SDS011;45067;44.654;20.200;2023-04-03T03:42:18;14.73;;;10.15;;
59294;SDS011;45067;44.654;20.200;2023-04-03T03:47:51;15.45;;;10.15;;
59294;SDS011;45067;44.654;20.200;2023-04-03T03:50:17;14.90;;;9.65;;
59294;SDS011;45067;44.654;20.200;2023-04-03T03:52:43;11.82;;;8.70;;
59294;SDS011;45067;44.654;20.200;2023-04-03T03:55:10;12.95;;;9.43;;
59294;SDS011;45067;44.654;20.200;2023-04-03T03:57:36;14.10;;;9.98;;
59294;SDS011;45067;44.654;20.200;2023-04-03T04:00:02;13.30;;;10.57;;
59294;SDS011;45067;44.654;20.200;2023-04-03T04:02:29;15.38;;;10.18;;
59294;SDS011;45067;44.654;20.200;2023-04-03T04:04:55;14.90;;;11.18;;
59294;SDS011;45067;44.654;20.200;2023-04-03T04:07:21;14.52;;;9.73;;
59294;SDS011;45067;44.654;20.200;2023-04-03T04:09:47;15.18;;;10.05;;
59294;SDS011;45067;44.654;20.200;2023-04-03T04:12:13;13.75;;;10.57;;
59294;SDS011;45067;44.654;20.200;2023-04-03T04:17:43;14.38;;;10.68;;
59294;SDS011;45067;44.654;20.200;2023-04-03T04:20:09;13.15;;;9.73;;
59294;SDS011;45067;44.654;20.200;2023-04-03T04:22:36;15.13;;;9.65;;
59294;SDS011;45067;44.654;20.200;2023-04-03T04:25:02;13.75;;;9.95;;
59294;SDS011;45067;44.654;20.200;2023-04-03T04:27:28;14.00;;;10.55;;
59294;SDS011;45067;44.654;20.200;2023-04-03T04:32:58;12.95;;;10.05;;
59294;SDS011;45067;44.654;20.200;2023-04-03T04:35:24;14.68;;;10.13;;
59294;SDS011;45067;44.654;20.200;2023-04-03T04:37:50;17.00;;;10.43;;
59294;SDS011;45067;44.654;20.200;2023-04-03T04:40:16;13.88;;;10.10;;
59294;SDS011;45067;44.654;20.200;2023-04-03T04:42:43;14.00;;;9.02;;
59294;SDS011;45067;44.654;20.200;2023-04-03T04:45:12;15.73;;;10.02;;
59294;SDS011;45067;44.654;20.200;2023-04-03T04:50:05;16.02;;;10.38;;
59294;SDS011;45067;44.654;20.200;2023-04-03T04:52:32;15.90;;;10.70;;
59294;SDS011;45067;44.654;20.200;2023-04-03T04:54:58;15.43;;;10.68;;
59294;SDS011;45067;44.654;20.200;2023-04-03T04:57:24;14.07;;;10.20;;
59294;SDS011;45067;44.654;20.200;2023-04-03T05:02:54;16.08;;;10.73;;
59294;SDS011;45067;44.654;20.200;2023-04-03T05:05:20;15.38;;;10.15;;
59294;SDS011;45067;44.654;20.200;2023-04-03T05:07:47;13.75;;;10.23;;
59294;SDS011;45067;44.654;20.200;2023-04-03T05:10:13;16.90;;;10.75;;
59294;SDS011;45067;44.654;20.200;2023-04-03T05:12:39;16.45;;;11.30;;
59294;SDS011;45067;44.654;20.200;2023-04-03T05:18:30;15.90;;;10.15;;
59294;SDS011;45067;44.654;20.200;2023-04-03T05:20:59;14.25;;;10.00;;
59294;SDS011;45067;44.654;20.200;2023-04-03T05:23:25;15.57;;;11.20;;
59294;SDS011;45067;44.654;20.200;2023-04-03T05:25:51;17.17;;;10.20;;
59294;SDS011;45067;44.654;20.200;2023-04-03T05:28:18;14.75;;;10.27;;
59294;SDS011;45067;44.654;20.200;2023-04-03T05:30:44;15.65;;;10.75;;
59294;SDS011;45067;44.654;20.200;2023-04-03T05:33:10;16.45;;;10.95;;
59294;SDS011;45067;44.654;20.200;2023-04-03T05:35:37;14.55;;;9.93;;
59294;SDS011;45067;44.654;20.200;2023-04-03T05:38:06;16.98;;;10.60;;
59294;SDS011;45067;44.654;20.200;2023-04-03T05:40:34;16.20;;;10.00;;
59294;SDS011;45067;44.654;20.200;2023-04-03T05:43:00;15.50;;;10.73;;
59294;SDS011;45067;44.654;20.200;2023-04-03T05:45:26;12.15;;;9.13;;
59294;SDS011;45067;44.654;20.200;2023-04-03T05:47:52;13.98;;;9.93;;
59294;SDS011;45067;44.654;20.200;2023-04-03T05:50:18;16.75;;;10.77;;
59294;SDS011;45067;44.654;20.200;2023-04-03T05:52:45;14.40;;;10.65;;
59294;SDS011;45067;44.654;20.200;2023-04-03T05:55:12;16.45;;;11.50;;
59294;SDS011;45067;44.654;20.200;2023-04-03T05:57:38;15.43;;;10.82;;
59294;SDS011;45067;44.654;20.200;2023-04-03T06:03:08;16.48;;;10.82;;
59294;SDS011;45067;44.654;20.200;2023-04-03T06:05:34;22.85;;;13.50;;
59294;SDS011;45067;44.654;20.200;2023-04-03T06:08:00;24.35;;;14.55;;
59294;SDS011;45067;44.654;20.200;2023-04-03T06:10:26;27.60;;;16.13;;
59294;SDS011;45067;44.654;20.200;2023-04-03T06:12:52;25.27;;;15.80;;
59294;SDS011;45067;44.654;20.200;2023-04-03T06:15:18;20.52;;;13.20;;
59294;SDS011;45067;44.654;20.200;2023-04-03T06:17:45;22.83;;;14.88;;
59294;SDS011;45067;44.654;20.200;2023-04-03T06:20:11;24.27;;;15.07;;
59294;SDS011;45067;44.654;20.200;2023-04-03T06:22:38;20.13;;;13.00;;
59294;SDS011;45067;44.654;20.200;2023-04-03T06:25:04;19.90;;;12.73;;
59294;SDS011;45067;44.654;20.200;2023-04-03T06:27:31;20.80;;;12.10;;
59294;SDS011;45067;44.654;20.200;2023-04-03T06:33:00;19.02;;;12.30;;
59294;SDS011;45067;44.654;20.200;2023-04-03T06:35:26;19.75;;;11.13;;
59294;SDS011;45067;44.654;20.200;2023-04-03T06:37:53;16.10;;;10.73;;
59294;SDS011;45067;44.654;20.200;2023-04-03T06:40:22;14.07;;;10.30;;
59294;SDS011;45067;44.654;20.200;2023-04-03T06:42:48;13.57;;;9.50;;
59294;SDS011;45067;44.654;20.200;2023-04-03T06:48:18;14.90;;;9.95;;
59294;SDS011;45067;44.654;20.200;2023-04-03T06:50:44;15.63;;;10.25;;
59294;SDS011;45067;44.654;20.200;2023-04-03T06:53:10;16.63;;;10.27;;
59294;SDS011;45067;44.654;20.200;2023-04-03T06:55:37;14.02;;;10.43;;
59294;SDS011;45067;44.654;20.200;2023-04-03T06:58:03;12.75;;;8.73;;
59294;SDS011;45067;44.654;20.200;2023-04-03T07:00:29;15.48;;;9.70;;
59294;SDS011;45067;44.654;20.200;2023-04-03T07:02:56;14.85;;;9.90;;
59294;SDS011;45067;44.654;20.200;2023-04-03T07:05:22;15.25;;;9.90;;
59294;SDS011;45067;44.654;20.200;2023-04-03T07:07:49;15.65;;;9.82;;
59294;SDS011;45067;44.654;20.200;2023-04-03T07:10:16;14.88;;;9.25;;
59294;SDS011;45067;44.654;20.200;2023-04-03T07:12:42;13.18;;;8.77;;
59294;SDS011;45067;44.654;20.200;2023-04-03T07:18:12;11.55;;;8.20;;
59294;SDS011;45067;44.654;20.200;2023-04-03T07:20:38;16.02;;;9.65;;
59294;SDS011;45067;44.654;20.200;2023-04-03T07:23:05;13.23;;;8.57;;
59294;SDS011;45067;44.654;20.200;2023-04-03T07:25:31;15.43;;;9.10;;
59294;SDS011;45067;44.654;20.200;2023-04-03T07:27:58;14.73;;;8.77;;
59294;SDS011;45067;44.654;20.200;2023-04-03T07:33:28;10.70;;;8.18;;
59294;SDS011;45067;44.654;20.200;2023-04-03T07:35:54;11.82;;;8.00;;
59294;SDS011;45067;44.654;20.200;2023-04-03T07:38:20;13.70;;;9.25;;
59294;SDS011;45067;44.654;20.200;2023-04-03T07:40:47;13.02;;;9.63;;
59294;SDS011;45067;44.654;20.200;2023-04-03T07:43:15;12.68;;;9.07;;
59294;SDS011;45067;44.654;20.200;2023-04-03T07:45:41;11.70;;;8.13;;
59294;SDS011;45067;44.654;20.200;2023-04-03T07:48:08;12.43;;;8.43;;
59294;SDS011;45067;44.654;20.200;2023-04-03T07:50:35;12.98;;;8.07;;
59294;SDS011;45067;44.654;20.200;2023-04-03T07:53:01;10.93;;;8.07;;
59294;SDS011;45067;44.654;20.200;2023-04-03T07:55:28;12.10;;;7.85;;
59294;SDS011;45067;44.654;20.200;2023-04-03T07:57:54;12.48;;;7.20;;
59294;SDS011;45067;44.654;20.200;2023-04-03T08:03:24;11.35;;;7.72;;
59294;SDS011;45067;44.654;20.200;2023-04-03T08:05:50;10.18;;;6.70;;
59294;SDS011;45067;44.654;20.200;2023-04-03T08:08:17;10.55;;;6.78;;
59294;SDS011;45067;44.654;20.200;2023-04-03T08:10:45;9.75;;;6.85;;
59294;SDS011;45067;44.654;20.200;2023-04-03T08:13:13;9.18;;;6.53;;
59294;SDS011;45067;44.654;20.200;2023-04-03T08:15:39;10.20;;;6.32;;
59294;SDS011;45067;44.654;20.200;2023-04-03T08:18:05;8.27;;;5.90;;
59294;SDS011;45067;44.654;20.200;2023-04-03T08:20:32;8.13;;;5.20;;
59294;SDS011;45067;44.654;20.200;2023-04-03T08:22:58;7.63;;;5.30;;
59294;SDS011;45067;44.654;20.200;2023-04-03T08:25:24;9.43;;;6.40;;
59294;SDS011;45067;44.654;20.200;2023-04-03T08:27:50;10.93;;;7.00;;
59294;SDS011;45067;44.654;20.200;2023-04-03T08:33:19;11.43;;;7.05;;
59294;SDS011;45067;44.654;20.200;2023-04-03T08:35:45;11.30;;;7.22;;
59294;SDS011;45067;44.654;20.200;2023-04-03T08:38:11;11.45;;;7.20;;
59294;SDS011;45067;44.654;20.200;2023-04-03T08:40:38;11.20;;;7.10;;
59294;SDS011;45067;44.654;20.200;2023-04-03T08:48:35;9.15;;;6.72;;
59294;SDS011;45067;44.654;20.200;2023-04-03T08:51:03;9.30;;;6.82;;
59294;SDS011;45067;44.654;20.200;2023-04-03T08:53:32;9.63;;;6.97;;
59294;SDS011;45067;44.654;20.200;2023-04-03T08:56:00;7.93;;;5.88;;
59294;SDS011;45067;44.654;20.200;2023-04-03T08:58:29;9.57;;;7.05;;
59294;SDS011;45067;44.654;20.200;2023-04-03T09:01:00;9.20;;;6.13;;
59294;SDS011;45067;44.654;20.200;2023-04-03T09:03:29;8.48;;;5.13;;
59294;SDS011;45067;44.654;20.200;2023-04-03T09:14:11;5.38;;;3.67;;
59294;SDS011;45067;44.654;20.200;2023-04-03T09:16:45;4.80;;;3.10;;
59294;SDS011;45067;44.654;20.200;2023-04-03T09:21:43;8.15;;;4.65;;
59294;SDS011;45067;44.654;20.200;2023-04-03T09:24:10;10.95;;;7.38;;
59294;SDS011;45067;44.654;20.200;2023-04-03T09:26:54;9.15;;;5.32;;
59294;SDS011;45067;44.654;20.200;2023-04-03T09:29:24;8.65;;;5.82;;
59294;SDS011;45067;44.654;20.200;2023-04-03T09:31:52;11.48;;;6.22;;
59294;SDS011;45067;44.654;20.200;2023-04-03T09:36:51;6.68;;;4.03;;
59294;SDS011;45067;44.654;20.200;2023-04-03T09:39:24;7.20;;;4.60;;
59294;SDS011;45067;44.654;20.200;2023-04-03T09:41:56;6.90;;;3.97;;
59294;SDS011;45067;44.654;20.200;2023-04-03T09:44:23;7.22;;;4.15;;
59294;SDS011;45067;44.654;20.200;2023-04-03T09:46:50;7.05;;;3.50;;
59294;SDS011;45067;44.654;20.200;2023-04-03T09:49:17;7.53;;;4.00;;
59294;SDS011;45067;44.654;20.200;2023-04-03T09:51:43;7.15;;;3.80;;
59294;SDS011;45067;44.654;20.200;2023-04-03T09:56:55;7.43;;;4.28;;
59294;SDS011;45067;44.654;20.200;2023-04-03T09:59:21;6.13;;;4.00;;
59294;SDS011;45067;44.654;20.200;2023-04-03T10:01:57;6.53;;;4.35;;
59294;SDS011;45067;44.654;20.200;2023-04-03T10:04:24;7.43;;;4.30;;
59294;SDS011;45067;44.654;20.200;2023-04-03T10:06:54;9.82;;;5.20;;
59294;SDS011;45067;44.654;20.200;2023-04-03T10:12:11;9.25;;;4.03;;
59294;SDS011;45067;44.654;20.200;2023-04-03T10:17:31;9.35;;;4.40;;
59294;SDS011;45067;44.654;20.200;2023-04-03T10:20:06;9.02;;;3.83;;
59294;SDS011;45067;44.654;20.200;2023-04-03T10:22:42;6.13;;;3.55;;
59294;SDS011;45067;44.654;20.200;2023-04-03T10:28:02;5.28;;;3.40;;
59294;SDS011;45067;44.654;20.200;2023-04-03T10:43:44;4.10;;;2.67;;
59294;SDS011;45067;44.654;20.200;2023-04-03T10:51:37;6.20;;;3.75;;
59294;SDS011;45067;44.654;20.200;2023-04-03T10:56:50;5.30;;;3.33;;
59294;SDS011;45067;44.654;20.200;2023-04-03T10:59:37;4.25;;;2.88;;
59294;SDS011;45067;44.654;20.200;2023-04-03T11:04:51;6.32;;;3.78;;
59294;SDS011;45067;44.654;20.200;2023-04-03T11:07:22;8.68;;;4.82;;
59294;SDS011;45067;44.654;20.200;2023-04-03T11:09:50;8.98;;;4.15;;
59294;SDS011;45067;44.654;20.200;2023-04-03T11:14:43;10.30;;;5.30;;
59294;SDS011;45067;44.654;20.200;2023-04-03T11:17:11;5.97;;;4.03;;
59294;SDS011;45067;44.654;20.200;2023-04-03T11:22:13;8.00;;;4.40;;
59294;SDS011;45067;44.654;20.200;2023-04-03T11:24:42;5.90;;;2.92;;
59294;SDS011;45067;44.654;20.200;2023-04-03T11:27:15;3.65;;;2.58;;
59294;SDS011;45067;44.654;20.200;2023-04-03T11:29:44;4.22;;;2.88;;
59294;SDS011;45067;44.654;20.200;2023-04-03T11:32:17;5.75;;;3.22;;
59294;SDS011;45067;44.654;20.200;2023-04-03T11:34:47;4.40;;;2.90;;
59294;SDS011;45067;44.654;20.200;2023-04-03T11:37:27;7.40;;;3.53;;
59294;SDS011;45067;44.654;20.200;2023-04-03T11:39:59;5.55;;;3.53;;
59294;SDS011;45067;44.654;20.200;2023-04-03T11:42:34;5.88;;;3.58;;
59294;SDS011;45067;44.654;20.200;2023-04-03T11:47:45;7.45;;;3.35;;
59294;SDS011;45067;44.654;20.200;2023-04-03T11:50:31;7.63;;;3.70;;
59294;SDS011;45067;44.654;20.200;2023-04-03T11:52:58;5.18;;;3.60;;
59294;SDS011;45067;44.654;20.200;2023-04-03T12:16:03;12.80;;;8.13;;
59294;SDS011;45067;44.654;20.200;2023-04-03T12:18:43;8.77;;;4.22;;
59294;SDS011;45067;44.654;20.200;2023-04-03T12:21:10;7.80;;;3.53;;
59294;SDS011;45067;44.654;20.200;2023-04-03T12:23:55;8.60;;;4.15;;
59294;SDS011;45067;44.654;20.200;2023-04-03T12:26:44;4.90;;;3.00;;
59294;SDS011;45067;44.654;20.200;2023-04-03T12:29:21;7.85;;;3.17;;
59294;SDS011;45067;44.654;20.200;2023-04-03T12:34:24;6.85;;;3.83;;
59294;SDS011;45067;44.654;20.200;2023-04-03T12:42:14;7.97;;;5.45;;
59294;SDS011;45067;44.654;20.200;2023-04-03T12:44:53;8.32;;;5.63;;
59294;SDS011;45067;44.654;20.200;2023-04-03T12:47:24;12.50;;;7.55;;
59294;SDS011;45067;44.654;20.200;2023-04-03T12:49:51;14.27;;;8.25;;
59294;SDS011;45067;44.654;20.200;2023-04-03T12:52:30;13.63;;;7.53;;
59294;SDS011;45067;44.654;20.200;2023-04-03T12:54:58;7.15;;;4.70;;
59294;SDS011;45067;44.654;20.200;2023-04-03T12:57:25;7.85;;;4.22;;
59294;SDS011;45067;44.654;20.200;2023-04-03T12:59:52;13.98;;;5.88;;
59294;SDS011;45067;44.654;20.200;2023-04-03T13:02:29;8.70;;;4.47;;
59294;SDS011;45067;44.654;20.200;2023-04-03T13:04:56;7.63;;;4.25;;
59294;SDS011;45067;44.654;20.200;2023-04-03T13:07:29;9.23;;;4.80;;
59294;SDS011;45067;44.654;20.200;2023-04-03T13:10:16;10.82;;;4.43;;
59294;SDS011;45067;44.654;20.200;2023-04-03T13:15:14;13.38;;;8.82;;
59294;SDS011;45067;44.654;20.200;2023-04-03T13:17:41;12.77;;;6.20;;
59294;SDS011;45067;44.654;20.200;2023-04-03T13:20:11;7.13;;;4.63;;
59294;SDS011;45067;44.654;20.200;2023-04-03T13:22:41;9.20;;;4.18;;
59294;SDS011;45067;44.654;20.200;2023-04-03T13:25:09;7.93;;;3.47;;
59294;SDS011;45067;44.654;20.200;2023-04-03T13:27:36;8.95;;;4.03;;
59294;SDS011;45067;44.654;20.200;2023-04-03T13:30:04;8.20;;;4.88;;
59294;SDS011;45067;44.654;20.200;2023-04-03T13:32:31;9.30;;;4.55;;
59294;SDS011;45067;44.654;20.200;2023-04-03T13:34:57;7.05;;;3.97;;
59294;SDS011;45067;44.654;20.200;2023-04-03T13:40:00;5.72;;;3.65;;
59294;SDS011;45067;44.654;20.200;2023-04-03T13:42:29;7.82;;;3.40;;
59294;SDS011;45067;44.654;20.200;2023-04-03T13:45:09;7.38;;;3.92;;
59294;SDS011;45067;44.654;20.200;2023-04-03T13:47:40;8.57;;;4.45;;
59294;SDS011;45067;44.654;20.200;2023-04-03T13:52:34;7.55;;;3.08;;
59294;SDS011;45067;44.654;20.200;2023-04-03T13:55:15;5.78;;;2.85;;
59294;SDS011;45067;44.654;20.200;2023-04-03T13:57:49;7.68;;;3.83;;
59294;SDS011;45067;44.654;20.200;2023-04-03T14:00:20;8.52;;;3.80;;
59294;SDS011;45067;44.654;20.200;2023-04-03T14:02:47;6.03;;;3.08;;
59294;SDS011;45067;44.654;20.200;2023-04-03T14:05:13;5.10;;;3.20;;
59294;SDS011;45067;44.654;20.200;2023-04-03T14:07:41;8.50;;;4.07;;
59294;SDS011;45067;44.654;20.200;2023-04-03T14:10:07;8.20;;;4.45;;
59294;SDS011;45067;44.654;20.200;2023-04-03T14:12:34;9.45;;;3.70;;
59294;SDS011;45067;44.654;20.200;2023-04-03T14:15:03;6.25;;;3.40;;
59294;SDS011;45067;44.654;20.200;2023-04-03T14:17:30;11.00;;;6.63;;
59294;SDS011;45067;44.654;20.200;2023-04-03T14:19:56;10.63;;;5.75;;
59294;SDS011;45067;44.654;20.200;2023-04-03T14:22:24;7.05;;;3.80;;
59294;SDS011;45067;44.654;20.200;2023-04-03T14:24:52;8.60;;;5.38;;
59294;SDS011;45067;44.654;20.200;2023-04-03T14:27:26;9.40;;;5.72;;
59294;SDS011;45067;44.654;20.200;2023-04-03T14:29:54;6.43;;;3.58;;
59294;SDS011;45067;44.654;20.200;2023-04-03T14:32:22;10.30;;;4.50;;
59294;SDS011;45067;44.654;20.200;2023-04-03T14:34:48;7.53;;;4.68;;
59294;SDS011;45067;44.654;20.200;2023-04-03T14:37:18;12.85;;;7.22;;
59294;SDS011;45067;44.654;20.200;2023-04-03T14:39:49;7.57;;;4.88;;
59294;SDS011;45067;44.654;20.200;2023-04-03T14:42:20;11.23;;;5.90;;
59294;SDS011;45067;44.654;20.200;2023-04-03T14:44:47;10.10;;;5.03;;
59294;SDS011;45067;44.654;20.200;2023-04-03T14:47:14;7.18;;;4.43;;
59294;SDS011;45067;44.654;20.200;2023-04-03T14:49:42;9.32;;;5.05;;
59294;SDS011;45067;44.654;20.200;2023-04-03T14:52:31;9.70;;;6.53;;
59294;SDS011;45067;44.654;20.200;2023-04-03T14:54:58;11.85;;;7.75;;
59294;SDS011;45067;44.654;20.200;2023-04-03T14:57:25;8.77;;;5.75;;
59294;SDS011;45067;44.654;20.200;2023-04-03T14:59:52;10.85;;;6.68;;
59294;SDS011;45067;44.654;20.200;2023-04-03T15:02:26;9.38;;;5.35;;
59294;SDS011;45067;44.654;20.200;2023-04-03T15:04:54;8.50;;;5.03;;
59294;SDS011;45067;44.654;20.200;2023-04-03T15:07:20;7.97;;;4.18;;
59294;SDS011;45067;44.654;20.200;2023-04-03T15:09:47;6.38;;;4.10;;
59294;SDS011;45067;44.654;20.200;2023-04-03T15:12:13;5.80;;;3.90;;
59294;SDS011;45067;44.654;20.200;2023-04-03T15:14:39;8.30;;;4.13;;
59294;SDS011;45067;44.654;20.200;2023-04-03T15:17:05;9.05;;;4.30;;
59294;SDS011;45067;44.654;20.200;2023-04-03T15:19:36;12.82;;;4.88;;
59294;SDS011;45067;44.654;20.200;2023-04-03T15:22:02;10.63;;;5.97;;
59294;SDS011;45067;44.654;20.200;2023-04-03T15:24:28;7.72;;;5.50;;
59294;SDS011;45067;44.654;20.200;2023-04-03T15:26:54;10.45;;;6.15;;
59294;SDS011;45067;44.654;20.200;2023-04-03T15:29:20;14.10;;;9.63;;
59294;SDS011;45067;44.654;20.200;2023-04-03T15:31:46;9.70;;;5.75;;
59294;SDS011;45067;44.654;20.200;2023-04-03T15:34:14;7.15;;;4.60;;
59294;SDS011;45067;44.654;20.200;2023-04-03T15:36:41;10.43;;;4.80;;
59294;SDS011;45067;44.654;20.200;2023-04-03T15:39:07;12.75;;;7.55;;
59294;SDS011;45067;44.654;20.200;2023-04-03T15:41:33;16.05;;;7.70;;
59294;SDS011;45067;44.654;20.200;2023-04-03T15:43:59;13.25;;;6.65;;
59294;SDS011;45067;44.654;20.200;2023-04-03T15:46:25;13.05;;;7.70;;
59294;SDS011;45067;44.654;20.200;2023-04-03T15:48:51;11.27;;;7.15;;
59294;SDS011;45067;44.654;20.200;2023-04-03T15:51:17;14.25;;;7.32;;
59294;SDS011;45067;44.654;20.200;2023-04-03T15:53:43;13.93;;;7.50;;
59294;SDS011;45067;44.654;20.200;2023-04-03T15:56:09;13.40;;;8.05;;
59294;SDS011;45067;44.654;20.200;2023-04-03T15:58:36;13.82;;;8.45;;
59294;SDS011;45067;44.654;20.200;2023-04-03T16:01:02;11.68;;;6.90;;
59294;SDS011;45067;44.654;20.200;2023-04-03T16:03:28;12.15;;;7.28;;
59294;SDS011;45067;44.654;20.200;2023-04-03T16:05:55;8.90;;;5.25;;
59294;SDS011;45067;44.654;20.200;2023-04-03T16:08:21;9.07;;;5.10;;
59294;SDS011;45067;44.654;20.200;2023-04-03T16:10:48;7.43;;;4.53;;
59294;SDS011;45067;44.654;20.200;2023-04-03T16:13:14;7.50;;;3.75;;
59294;SDS011;45067;44.654;20.200;2023-04-03T16:15:40;8.63;;;4.45;;
59294;SDS011;45067;44.654;20.200;2023-04-03T16:18:07;9.05;;;4.32;;
59294;SDS011;45067;44.654;20.200;2023-04-03T16:20:33;9.35;;;4.75;;
59294;SDS011;45067;44.654;20.200;2023-04-03T16:23:00;9.02;;;4.65;;
59294;SDS011;45067;44.654;20.200;2023-04-03T16:25:26;11.07;;;5.07;;
59294;SDS011;45067;44.654;20.200;2023-04-03T16:27:53;13.43;;;7.53;;
59294;SDS011;45067;44.654;20.200;2023-04-03T16:30:19;9.55;;;5.00;;
59294;SDS011;45067;44.654;20.200;2023-04-03T16:32:45;11.95;;;5.55;;
59294;SDS011;45067;44.654;20.200;2023-04-03T16:35:11;8.15;;;4.43;;
59294;SDS011;45067;44.654;20.200;2023-04-03T16:37:38;9.77;;;5.40;;
59294;SDS011;45067;44.654;20.200;2023-04-03T16:40:05;9.27;;;4.45;;
59294;SDS011;45067;44.654;20.200;2023-04-03T16:42:31;7.13;;;3.92;;
59294;SDS011;45067;44.654;20.200;2023-04-03T16:44:57;8.77;;;4.20;;
59294;SDS011;45067;44.654;20.200;2023-04-03T16:47:25;9.20;;;5.07;;
59294;SDS011;45067;44.654;20.200;2023-04-03T16:49:52;7.35;;;3.95;;
59294;SDS011;45067;44.654;20.200;2023-04-03T16:52:18;8.45;;;4.25;;
59294;SDS011;45067;44.654;20.200;2023-04-03T16:54:44;8.43;;;3.60;;
59294;SDS011;45067;44.654;20.200;2023-04-03T16:57:10;10.25;;;4.75;;
59294;SDS011;45067;44.654;20.200;2023-04-03T16:59:36;9.15;;;5.05;;
59294;SDS011;45067;44.654;20.200;2023-04-03T17:02:02;7.20;;;3.47;;
59294;SDS011;45067;44.654;20.200;2023-04-03T17:07:32;12.93;;;7.13;;
59294;SDS011;45067;44.654;20.200;2023-04-03T17:09:59;7.40;;;4.50;;
59294;SDS011;45067;44.654;20.200;2023-04-03T17:12:25;7.65;;;4.80;;
59294;SDS011;45067;44.654;20.200;2023-04-03T17:14:51;7.07;;;4.63;;
59294;SDS011;45067;44.654;20.200;2023-04-03T17:17:18;10.40;;;4.82;;
59294;SDS011;45067;44.654;20.200;2023-04-03T17:19:45;9.05;;;4.35;;